Airfield :
LOGIN :

Register | Disclaimer

   EN    FR    IT 

 










Legend :    VFR   Marginal VFR   IFR   Intensive IFR   Very Intensive IFR
Visi :
Ceiling :
>= 8 km
>= 3000ft
5 to 8 km
1000 to 3000 ft
1500m to 5 km
500 to 1000 ft
800 to 1500m
200 to 500 ft
< 800m
< 200 ft
Symbols :   Thunderstorms  Fog  Heavy snow  Heavy precipitations  Wind > 20 kt
SIGMETs :     Misc.  Thunderstorms  Icing  Turbulence  Mountain Waves  Volcanic Ashes







- Airport Elevation : 1367 ft
- IATA code : FDH


EDNY - Friedrichshafen

CURRENT METAR :
  • 300020Z AUTO 06003KT 9999 07/04 Q1028

EXPIRED METARs :
  • 292350Z AUTO 08004KT 9999 07/04 Q1028
  • 292320Z AUTO 10002KT 9999 07/05 Q1028
  • 292250Z AUTO 08003KT 9999 07/05 Q1027
  • 292220Z AUTO 08005KT 9999 07/04 Q1027
  • 292150Z AUTO VRB02KT 9999 06/04 Q1027
  • 292120Z AUTO 05002KT 9999 08/05 Q1027

TAF TAF EDNY
Valid from the 30 at 00:00 until the 31 at 00:00 UTC


292300Z 3000/3024 VRB03KT CAVOK
BECMG 3008/3010 24005KT
BECMG 3015/3018 VRB03KT
No reported NOTAMs for that airfield.



MET'MAP, your aeronautical weather chart ! - Copyright ORBIFLY December 2007 - Disclaimer

ORBIFLY MET'MAP TEAM :

Programming & Development : Alexandra Zaïnal
Concept & Development : Baudouin d'Aumeries
Co-Development & Prog : Marc-Olivier Méhu
Technical & hardware support : Manuel Goepfert

Contact : metmap@orbifly.com




SOURCES & CREDITS :

   NOAA